createdAt,value
2023-02-03T00:02:43.946Z,42.11
2023-02-03T00:07:46.109Z,42.26
2023-02-03T00:12:53.162Z,43.70
2023-02-03T00:17:55.249Z,43.01
2023-02-03T00:23:07.885Z,43.09
2023-02-03T00:28:10.229Z,41.88
2023-02-03T00:33:12.393Z,41.20
2023-02-03T00:38:14.517Z,40.78
2023-02-03T00:43:16.579Z,40.60
2023-02-03T00:48:18.675Z,40.40
2023-02-03T00:53:20.954Z,40.44
2023-02-03T00:58:23.469Z,41.80
2023-02-03T01:03:25.763Z,41.87
2023-02-03T01:08:27.835Z,41.81
2023-02-03T01:13:29.927Z,42.04
2023-02-03T01:18:32.029Z,42.43
2023-02-03T01:23:35.053Z,43.69
2023-02-03T01:28:37.986Z,44.16
2023-02-03T01:33:41.283Z,47.38
2023-02-03T01:38:43.554Z,47.46
2023-02-03T01:43:54.101Z,45.34
2023-02-03T01:49:19.171Z,44.18
2023-02-03T01:54:32.209Z,43.27
2023-02-03T01:59:35.604Z,44.07
2023-02-03T02:04:47.083Z,44.11
2023-02-03T02:09:50.069Z,44.74
2023-02-03T02:14:52.474Z,47.30
2023-02-03T02:20:22.096Z,47.13
2023-02-03T02:25:42.466Z,47.28
2023-02-03T02:31:14.478Z,46.73
2023-02-03T02:36:31.414Z,45.63
2023-02-03T02:41:51.167Z,44.78
2023-02-03T02:47:03.456Z,43.86
2023-02-03T02:52:08.717Z,44.09
2023-02-03T02:57:13.532Z,43.42
2023-02-03T03:02:15.799Z,42.95
2023-02-03T03:07:24.406Z,42.42
2023-02-03T03:12:34.838Z,44.64
2023-02-03T03:17:49.085Z,44.70
2023-02-03T03:22:59.730Z,45.27
2023-02-03T03:28:10.745Z,45.98
2023-02-03T03:33:13.101Z,45.71
2023-02-03T03:38:33.960Z,46.39
2023-02-03T03:43:42.733Z,45.59
2023-02-03T03:48:54.781Z,44.74
2023-02-03T03:54:01.092Z,44.55
2023-02-03T03:59:05.569Z,45.00
2023-02-03T04:04:11.592Z,44.56
2023-02-03T04:09:13.678Z,44.35
2023-02-03T04:14:15.831Z,44.45
2023-02-03T04:19:17.927Z,44.63
2023-02-03T04:24:20.052Z,44.54
2023-02-03T04:29:22.147Z,44.83
2023-02-03T04:34:24.287Z,44.82
2023-02-03T04:39:26.413Z,45.11
2023-02-03T04:44:28.533Z,44.68
2023-02-03T04:49:30.608Z,44.84
2023-02-03T04:54:32.757Z,44.79
2023-02-03T04:59:34.877Z,44.54
2023-02-03T05:04:37.045Z,45.56
2023-02-03T05:09:39.170Z,47.46
2023-02-03T05:14:41.271Z,47.57
2023-02-03T05:19:43.485Z,47.82
2023-02-03T05:24:45.746Z,48.98
2023-02-03T05:29:47.890Z,48.33
2023-02-03T05:34:49.968Z,48.90
2023-02-03T05:39:52.036Z,49.36
2023-02-03T05:44:54.093Z,51.49
2023-02-03T05:49:56.190Z,52.03
2023-02-03T05:54:58.313Z,52.52
2023-02-03T06:00:00.416Z,54.31
2023-02-03T06:05:02.515Z,54.51
2023-02-03T06:10:04.959Z,53.57
2023-02-03T06:15:07.390Z,52.54
2023-02-03T06:20:11.268Z,51.73
2023-02-03T06:25:14.713Z,51.92
2023-02-03T06:30:17.514Z,52.19
2023-02-03T06:35:19.656Z,53.00
2023-02-03T06:40:21.887Z,52.86
2023-02-03T06:45:25.206Z,51.78
2023-02-03T06:50:27.519Z,51.14
2023-02-03T06:55:29.972Z,50.60
2023-02-03T07:00:32.417Z,50.29
2023-02-03T07:05:36.382Z,50.29
2023-02-03T07:10:38.538Z,49.78
2023-02-03T07:15:41.287Z,50.24
2023-02-03T07:20:43.389Z,50.17
2023-02-03T07:25:45.756Z,50.34
2023-02-03T07:30:49.576Z,51.64
2023-02-03T07:35:55.298Z,53.11
2023-02-03T07:40:57.407Z,54.79
2023-02-03T07:46:00.067Z,54.06
2023-02-03T07:51:02.261Z,55.17
2023-02-03T07:56:05.954Z,54.94
2023-02-03T08:01:16.990Z,55.45
2023-02-03T08:06:19.220Z,56.54
2023-02-03T08:11:21.415Z,55.39
2023-02-03T08:16:23.662Z,55.86
2023-02-03T08:21:25.792Z,54.84
2023-02-03T08:26:27.904Z,53.93
2023-02-03T08:31:31.262Z,52.86
2023-02-03T08:36:33.516Z,52.97
2023-02-03T08:41:36.117Z,52.78
2023-02-03T08:46:43.879Z,52.24
2023-02-03T08:51:48.426Z,54.18
2023-02-03T08:56:51.319Z,53.93
2023-02-03T09:01:53.501Z,52.03
2023-02-03T09:06:56.061Z,51.78
2023-02-03T09:12:03.169Z,50.62
2023-02-03T09:17:07.820Z,50.23
2023-02-03T09:22:10.001Z,48.85
2023-02-03T09:27:13.611Z,50.55
2023-02-03T09:32:15.986Z,49.60
2023-02-03T09:37:18.315Z,48.24
2023-02-03T09:42:45.179Z,46.12
2023-02-03T09:47:54.305Z,45.07
2023-02-03T09:52:57.978Z,42.93
2023-02-03T09:58:12.711Z,43.62
2023-02-03T10:03:37.016Z,44.56
2023-02-03T10:09:22.115Z,43.63
2023-02-03T10:14:50.248Z,43.16
2023-02-03T10:20:13.349Z,42.29
2023-02-03T10:25:15.591Z,42.30
2023-02-03T10:30:25.940Z,41.54
2023-02-03T10:36:00.343Z,42.38
2023-02-03T10:41:03.696Z,41.88
2023-02-03T10:46:06.074Z,40.34
2023-02-03T10:51:20.110Z,39.55
2023-02-03T10:56:44.378Z,38.62
2023-02-03T11:01:49.715Z,38.46
2023-02-03T11:07:02.140Z,37.50
2023-02-03T11:12:16.822Z,35.43
2023-02-03T11:17:27.992Z,35.27
2023-02-03T11:22:40.704Z,35.37
2023-02-03T11:27:43.508Z,35.40
2023-02-03T11:32:48.276Z,35.30
2023-02-03T11:37:56.504Z,34.08
2023-02-03T11:42:58.741Z,33.55
2023-02-03T11:48:45.077Z,33.60
2023-02-03T11:54:13.074Z,33.29
2023-02-03T11:59:45.965Z,33.32
2023-02-03T12:04:51.035Z,32.69
2023-02-03T12:10:02.755Z,32.48
2023-02-03T12:15:51.108Z,32.16
2023-02-03T12:21:02.175Z,32.57
2023-02-03T12:26:46.004Z,31.41
2023-02-03T12:32:01.690Z,31.80
2023-02-03T12:37:17.736Z,31.37
2023-02-03T12:42:42.657Z,30.13
2023-02-03T12:48:01.063Z,30.25
2023-02-03T12:53:13.633Z,30.82
2023-02-03T12:58:37.079Z,30.53
2023-02-03T13:04:10.155Z,30.92
2023-02-03T13:09:44.852Z,30.63
2023-02-03T13:15:00.244Z,30.28
2023-02-03T13:20:16.205Z,30.46
2023-02-03T13:25:36.396Z,29.99
2023-02-03T13:30:56.459Z,29.29
2023-02-03T13:36:06.759Z,28.93
2023-02-03T13:41:38.975Z,28.16
2023-02-03T13:46:41.641Z,28.30
2023-02-03T13:51:46.550Z,28.30
2023-02-03T13:57:07.495Z,27.97
2023-02-03T14:02:27.544Z,27.16
2023-02-03T14:07:40.278Z,27.92
2023-02-03T14:12:51.487Z,27.98
2023-02-03T14:17:53.564Z,27.77
2023-02-03T14:23:12.571Z,27.85
2023-02-03T14:28:18.984Z,27.48
2023-02-03T14:33:26.045Z,27.27
2023-02-03T14:38:33.575Z,27.18
2023-02-03T14:43:52.363Z,26.80
2023-02-03T14:49:39.218Z,26.44
2023-02-03T14:55:19.763Z,26.34
2023-02-03T15:00:25.877Z,25.92
2023-02-03T15:05:29.659Z,25.94
2023-02-03T15:10:42.938Z,25.26
2023-02-03T15:15:45.988Z,25.27
2023-02-03T15:20:53.318Z,24.76
2023-02-03T15:26:14.007Z,25.36
2023-02-03T15:31:25.869Z,25.98
2023-02-03T15:36:39.860Z,26.45
2023-02-03T15:41:42.708Z,26.30
2023-02-03T15:46:52.219Z,26.64
2023-02-03T15:52:02.367Z,26.70
2023-02-03T15:57:11.127Z,26.95
2023-02-03T16:02:21.209Z,27.29
2023-02-03T16:07:25.249Z,27.42
2023-02-03T16:12:34.011Z,27.50
2023-02-03T16:17:39.560Z,27.96
2023-02-03T16:23:02.104Z,28.77
2023-02-03T16:28:31.036Z,29.42
2023-02-03T16:33:53.010Z,30.02
2023-02-03T16:39:14.310Z,31.08
2023-02-03T16:44:35.160Z,31.50
2023-02-03T16:49:56.042Z,32.24
2023-02-03T16:54:59.129Z,32.63
2023-02-03T17:00:01.297Z,32.67
2023-02-03T17:05:03.489Z,32.62
2023-02-03T17:10:05.985Z,33.04
2023-02-03T17:15:09.044Z,33.42
2023-02-03T17:20:11.475Z,33.41
2023-02-03T17:25:13.911Z,33.85
2023-02-03T17:30:16.692Z,33.58
2023-02-03T17:35:18.843Z,34.25
2023-02-03T17:56:42.324Z,35.44
2023-02-03T18:01:44.467Z,36.17
2023-02-03T18:06:46.845Z,35.03
2023-02-03T18:11:49.063Z,35.47
2023-02-03T18:16:51.263Z,35.81
2023-02-03T18:21:53.370Z,36.94
2023-02-03T18:26:56.183Z,37.24
2023-02-03T18:31:58.432Z,36.94
2023-02-03T18:37:00.605Z,36.83
2023-02-03T18:42:03.078Z,37.25
2023-02-03T18:47:08.778Z,37.65
2023-02-03T18:52:10.904Z,38.49
2023-02-03T18:57:16.085Z,39.17
2023-02-03T19:02:18.423Z,38.94
2023-02-03T19:07:20.663Z,38.91
2023-02-03T19:12:22.963Z,38.58
2023-02-03T19:17:25.255Z,38.50
2023-02-03T19:22:27.524Z,38.88
2023-02-03T19:27:29.622Z,39.03
2023-02-03T19:32:32.245Z,38.92
2023-02-03T19:37:34.452Z,38.77
2023-02-03T19:42:36.702Z,38.65
2023-02-03T19:47:38.882Z,39.48
2023-02-03T19:52:41.029Z,39.46
2023-02-03T19:57:43.228Z,39.46
2023-02-03T20:02:45.347Z,39.63
2023-02-03T20:07:47.843Z,40.57
2023-02-03T20:12:49.990Z,40.33
2023-02-03T20:17:52.164Z,40.90
2023-02-03T20:22:54.422Z,41.03
2023-02-03T20:27:58.502Z,40.99
2023-02-03T20:33:00.836Z,41.07
2023-02-03T20:38:02.978Z,40.97
2023-02-03T20:43:20.397Z,40.91
2023-02-03T20:48:25.794Z,40.77
2023-02-03T20:53:28.059Z,40.96
2023-02-03T20:58:34.839Z,41.02
2023-02-03T21:03:55.784Z,41.16
2023-02-03T21:09:20.008Z,41.71
2023-02-03T21:14:26.389Z,41.78
2023-02-03T21:19:33.911Z,42.03
2023-02-03T21:24:38.254Z,41.88
2023-02-03T21:29:41.307Z,41.96
2023-02-03T21:34:44.896Z,42.27
2023-02-03T21:39:48.434Z,43.79
2023-02-03T21:44:51.087Z,43.65
2023-02-03T21:49:53.450Z,43.51
2023-02-03T21:54:55.705Z,42.69
2023-02-03T21:59:58.052Z,42.68
2023-02-03T22:05:00.932Z,42.55
2023-02-03T22:10:03.077Z,42.64
2023-02-03T22:15:05.560Z,42.56
2023-02-03T22:20:08.246Z,42.47
2023-02-03T22:25:10.439Z,42.06
2023-02-03T22:30:16.612Z,42.21
2023-02-03T22:35:18.824Z,41.86
2023-02-03T22:40:22.189Z,42.05
2023-02-03T22:45:24.449Z,42.48
2023-02-03T22:50:35.570Z,42.42
2023-02-03T22:55:38.813Z,42.28
2023-02-03T23:00:41.181Z,42.74
2023-02-03T23:05:43.325Z,42.67
2023-02-03T23:10:45.470Z,42.48
2023-02-03T23:15:48.697Z,43.14
2023-02-03T23:20:50.945Z,42.80
2023-02-03T23:25:53.123Z,43.03
2023-02-03T23:30:56.412Z,43.31
2023-02-03T23:35:58.680Z,43.33
2023-02-03T23:41:00.889Z,43.18
2023-02-03T23:46:03.528Z,43.93
2023-02-03T23:51:06.136Z,44.44
2023-02-03T23:56:08.306Z,43.55
